14.06C
небольшой дождь
небольшой дождь
Дата и времяТемператураДавление, мм рт.ст.Влажность, %Осадки
МинимумМаксимум
25.07.2024 17:0014.04C14.05C75586небольшой дождь
25.07.2024 20:0012.94C13.31C75687небольшой дождь
25.07.2024 23:0011.65C11.65C75691пасмурно
26.07.2024 02:0011.75C11.75C75687пасмурно
26.07.2024 05:0011.87C11.87C75684пасмурно
26.07.2024 08:0014.11C14.11C75676пасмурно
26.07.2024 11:0018.47C18.47C75655пасмурно
26.07.2024 14:0019.72C19.72C75651пасмурно
26.07.2024 17:0017.41C17.41C75668небольшой дождь
26.07.2024 20:0017.07C17.07C75570пасмурно
26.07.2024 23:0015.83C15.83C75574пасмурно
27.07.2024 02:0015.21C15.21C75479пасмурно
27.07.2024 05:0014.74C14.74C75380пасмурно
27.07.2024 08:0015.97C15.97C75175небольшой дождь
27.07.2024 11:0015.53C15.53C75090небольшой дождь
27.07.2024 14:0016.22C16.22C75094небольшой дождь
27.07.2024 17:0020.87C20.87C74984небольшой дождь
27.07.2024 20:0020.75C20.75C74788небольшой дождь
27.07.2024 23:0017.28C17.28C74995небольшой дождь
28.07.2024 02:0014.22C14.22C74992ясно
28.07.2024 05:0012.93C12.93C75094переменная облачность
28.07.2024 08:0015.82C15.82C75075облачно с прояснениями
28.07.2024 11:0019.27C19.27C75057облачно с прояснениями
28.07.2024 14:0022.67C22.67C74945переменная облачность
28.07.2024 17:0020.68C20.68C74955облачно с прояснениями
28.07.2024 20:0017.68C17.68C74968облачно с прояснениями
28.07.2024 23:0014.59C14.59C75081облачно с прояснениями
29.07.2024 02:0012.46C12.46C75089переменная облачность
29.07.2024 05:0012C12C75092переменная облачность
29.07.2024 08:0016.57C16.57C75174небольшая облачность
29.07.2024 11:0019.96C19.96C75058переменная облачность
29.07.2024 14:0020.17C20.17C75061небольшой дождь
29.07.2024 17:0020.21C20.21C75059облачно с прояснениями
29.07.2024 20:0016.89C16.89C75172переменная облачность
29.07.2024 23:0012.39C12.39C75186небольшая облачность
30.07.2024 02:0011.68C11.68C75187ясно
30.07.2024 05:0012.23C12.23C75188небольшая облачность
30.07.2024 08:0017.88C17.88C75172небольшая облачность
30.07.2024 11:0022.47C22.47C75056переменная облачность
30.07.2024 14:0024.86C24.86C75045пасмурно
Дата и время наблюдения: 25.07.2024 14:57:24